sensor_id;sensor_type;location;lat;lon;timestamp;pressure;altitude;pressure_sealevel;temperature;humidity
64352;BME280;50680;52.626;-8.668;2023-05-03T00:00:16;102201.41;;;11.25;100.00
64352;BME280;50680;52.626;-8.668;2023-05-03T00:02:43;102204.41;;;11.16;100.00
64352;BME280;50680;52.626;-8.668;2023-05-03T00:05:11;102210.41;;;11.20;100.00
64352;BME280;50680;52.626;-8.668;2023-05-03T00:07:41;102206.03;;;11.19;100.00
64352;BME280;50680;52.626;-8.668;2023-05-03T00:10:10;102204.34;;;11.18;100.00
64352;BME280;50680;52.626;-8.668;2023-05-03T00:12:39;102203.53;;;11.16;100.00
64352;BME280;50680;52.626;-8.668;2023-05-03T00:15:07;102203.59;;;11.14;100.00
64352;BME280;50680;52.626;-8.668;2023-05-03T00:17:38;102202.75;;;11.14;100.00
64352;BME280;50680;52.626;-8.668;2023-05-03T00:20:05;102208.84;;;11.14;100.00
64352;BME280;50680;52.626;-8.668;2023-05-03T00:22:32;102203.47;;;11.17;100.00
64352;BME280;50680;52.626;-8.668;2023-05-03T00:24:59;102206.91;;;11.19;100.00
64352;BME280;50680;52.626;-8.668;2023-05-03T00:27:27;102207.63;;;11.23;100.00
64352;BME280;50680;52.626;-8.668;2023-05-03T00:29:54;102214.66;;;11.22;100.00
64352;BME280;50680;52.626;-8.668;2023-05-03T00:32:21;102198.78;;;11.25;100.00
64352;BME280;50680;52.626;-8.668;2023-05-03T00:34:55;102202.28;;;11.26;100.00
64352;BME280;50680;52.626;-8.668;2023-05-03T00:37:23;102200.53;;;11.26;100.00
64352;BME280;50680;52.626;-8.668;2023-05-03T00:39:51;102198.78;;;11.25;100.00
64352;BME280;50680;52.626;-8.668;2023-05-03T00:42:18;102190.91;;;11.25;100.00
64352;BME280;50680;52.626;-8.668;2023-05-03T00:44:45;102185.66;;;11.25;100.00
64352;BME280;50680;52.626;-8.668;2023-05-03T00:47:12;102190.06;;;11.25;100.00
64352;BME280;50680;52.626;-8.668;2023-05-03T00:49:39;102196.44;;;11.41;100.00
64352;BME280;50680;52.626;-8.668;2023-05-03T00:52:07;102177.97;;;11.43;100.00
64352;BME280;50680;52.626;-8.668;2023-05-03T00:54:35;102189.84;;;11.53;100.00
64352;BME280;50680;52.626;-8.668;2023-05-03T00:57:03;102175.06;;;11.51;100.00
64352;BME280;50680;52.626;-8.668;2023-05-03T00:59:31;102165.63;;;11.45;100.00
64352;BME280;50680;52.626;-8.668;2023-05-03T01:01:58;102147.53;;;11.39;100.00
64352;BME280;50680;52.626;-8.668;2023-05-03T01:04:26;102160.38;;;11.45;100.00
64352;BME280;50680;52.626;-8.668;2023-05-03T01:07:06;102155.94;;;11.47;100.00
64352;BME280;50680;52.626;-8.668;2023-05-03T01:17:12;102142.50;;;11.33;100.00
64352;BME280;50680;52.626;-8.668;2023-05-03T01:19:50;102133.72;;;11.34;100.00
64352;BME280;50680;52.626;-8.668;2023-05-03T01:25:11;102123.38;;;11.29;100.00
64352;BME280;50680;52.626;-8.668;2023-05-03T01:27:39;102123.38;;;11.29;100.00
64352;BME280;50680;52.626;-8.668;2023-05-03T01:30:09;102120.81;;;11.27;100.00
64352;BME280;50680;52.626;-8.668;2023-05-03T01:32:51;102118.13;;;11.29;100.00
64352;BME280;50680;52.626;-8.668;2023-05-03T01:35:52;102113.88;;;11.26;100.00
64352;BME280;50680;52.626;-8.668;2023-05-03T01:38:21;102110.19;;;11.31;100.00
64352;BME280;50680;52.626;-8.668;2023-05-03T01:40:51;102117.34;;;11.27;100.00
64352;BME280;50680;52.626;-8.668;2023-05-03T01:43:19;102110.44;;;11.24;100.00
64352;BME280;50680;52.626;-8.668;2023-05-03T01:45:46;102101.66;;;11.25;100.00
64352;BME280;50680;52.626;-8.668;2023-05-03T01:48:15;102100.84;;;11.23;100.00
64352;BME280;50680;52.626;-8.668;2023-05-03T01:50:42;102106.00;;;11.26;100.00
64352;BME280;50680;52.626;-8.668;2023-05-03T01:53:09;102093.72;;;11.27;100.00
64352;BME280;50680;52.626;-8.668;2023-05-03T01:55:36;102096.28;;;11.28;100.00
64352;BME280;50680;52.626;-8.668;2023-05-03T01:58:02;102097.19;;;11.27;100.00
64352;BME280;50680;52.626;-8.668;2023-05-03T02:00:29;102097.44;;;11.21;100.00
64352;BME280;50680;52.626;-8.668;2023-05-03T02:02:56;102092.25;;;11.20;100.00
64352;BME280;50680;52.626;-8.668;2023-05-03T02:05:23;102090.66;;;11.16;100.00
64352;BME280;50680;52.626;-8.668;2023-05-03T02:07:51;102079.31;;;11.15;100.00
64352;BME280;50680;52.626;-8.668;2023-05-03T02:10:18;102088.22;;;11.11;100.00
64352;BME280;50680;52.626;-8.668;2023-05-03T02:12:45;102079.53;;;11.09;100.00
64352;BME280;50680;52.626;-8.668;2023-05-03T02:15:12;102083.19;;;11.05;100.00
64352;BME280;50680;52.626;-8.668;2023-05-03T02:17:41;102073.75;;;11.01;100.00
64352;BME280;50680;52.626;-8.668;2023-05-03T02:20:08;102085.22;;;10.98;100.00
64352;BME280;50680;52.626;-8.668;2023-05-03T02:22:38;102085.25;;;10.97;100.00
64352;BME280;50680;52.626;-8.668;2023-05-03T02:25:05;102087.94;;;10.95;100.00
64352;BME280;50680;52.626;-8.668;2023-05-03T02:27:33;102078.38;;;10.94;100.00
64352;BME280;50680;52.626;-8.668;2023-05-03T02:29:59;102077.44;;;10.95;100.00
64352;BME280;50680;52.626;-8.668;2023-05-03T02:32:27;102089.66;;;10.96;100.00
64352;BME280;50680;52.626;-8.668;2023-05-03T02:34:54;102081.00;;;10.94;100.00
64352;BME280;50680;52.626;-8.668;2023-05-03T02:37:21;102088.94;;;10.93;100.00
64352;BME280;50680;52.626;-8.668;2023-05-03T02:39:48;102093.41;;;10.90;100.00
64352;BME280;50680;52.626;-8.668;2023-05-03T02:42:14;102089.03;;;10.89;100.00
64352;BME280;50680;52.626;-8.668;2023-05-03T02:44:41;102090.88;;;10.87;100.00
64352;BME280;50680;52.626;-8.668;2023-05-03T02:47:09;102090.03;;;10.87;100.00
64352;BME280;50680;52.626;-8.668;2023-05-03T02:49:35;102082.22;;;10.85;100.00
64352;BME280;50680;52.626;-8.668;2023-05-03T02:52:02;102083.19;;;10.83;100.00
64352;BME280;50680;52.626;-8.668;2023-05-03T02:54:29;102085.75;;;10.84;100.00
64352;BME280;50680;52.626;-8.668;2023-05-03T02:56:56;102063.50;;;10.71;100.00
64352;BME280;50680;52.626;-8.668;2023-05-03T02:59:23;102078.97;;;10.79;100.00
64352;BME280;50680;52.626;-8.668;2023-05-03T03:01:50;102081.88;;;10.71;100.00
64352;BME280;50680;52.626;-8.668;2023-05-03T03:04:17;102060.66;;;10.53;100.00
64352;BME280;50680;52.626;-8.668;2023-05-03T03:06:44;102073.63;;;10.58;100.00
64352;BME280;50680;52.626;-8.668;2023-05-03T03:09:11;102076.94;;;10.63;100.00
64352;BME280;50680;52.626;-8.668;2023-05-03T03:11:38;102084.59;;;10.69;100.00
64352;BME280;50680;52.626;-8.668;2023-05-03T03:14:05;102085.31;;;10.73;100.00
64352;BME280;50680;52.626;-8.668;2023-05-03T03:16:32;102081.75;;;10.74;100.00
64352;BME280;50680;52.626;-8.668;2023-05-03T03:18:59;102080.84;;;10.75;100.00
64352;BME280;50680;52.626;-8.668;2023-05-03T03:21:26;102075.63;;;10.75;100.00
64352;BME280;50680;52.626;-8.668;2023-05-03T03:23:57;102079.03;;;10.77;100.00
64352;BME280;50680;52.626;-8.668;2023-05-03T03:26:24;102080.75;;;10.78;100.00
64352;BME280;50680;52.626;-8.668;2023-05-03T03:28:51;102073.66;;;10.80;100.00
64352;BME280;50680;52.626;-8.668;2023-05-03T03:31:18;102077.94;;;10.83;100.00
64352;BME280;50680;52.626;-8.668;2023-05-03T03:33:48;102070.38;;;10.75;100.00
64352;BME280;50680;52.626;-8.668;2023-05-03T03:36:15;102077.31;;;10.76;100.00
64352;BME280;50680;52.626;-8.668;2023-05-03T03:38:42;102068.75;;;10.71;100.00
64352;BME280;50680;52.626;-8.668;2023-05-03T03:41:08;102064.50;;;10.68;100.00
64352;BME280;50680;52.626;-8.668;2023-05-03T03:43:35;102066.94;;;10.73;100.00
64352;BME280;50680;52.626;-8.668;2023-05-03T03:46:02;102056.25;;;10.78;100.00
64352;BME280;50680;52.626;-8.668;2023-05-03T03:48:29;102051.88;;;10.78;100.00
64352;BME280;50680;52.626;-8.668;2023-05-03T03:50:56;102052.78;;;10.77;100.00
64352;BME280;50680;52.626;-8.668;2023-05-03T03:53:23;102047.53;;;10.77;100.00
64352;BME280;50680;52.626;-8.668;2023-05-03T03:55:49;102047.50;;;10.79;100.00
64352;BME280;50680;52.626;-8.668;2023-05-03T03:58:16;102052.69;;;10.80;100.00
64352;BME280;50680;52.626;-8.668;2023-05-03T04:00:43;102047.44;;;10.80;100.00
64352;BME280;50680;52.626;-8.668;2023-05-03T04:03:10;102051.88;;;10.78;100.00
64352;BME280;50680;52.626;-8.668;2023-05-03T04:05:37;102044.91;;;10.77;100.00
64352;BME280;50680;52.626;-8.668;2023-05-03T04:08:04;102051.06;;;10.76;100.00
64352;BME280;50680;52.626;-8.668;2023-05-03T04:10:31;102046.69;;;10.77;100.00
64352;BME280;50680;52.626;-8.668;2023-05-03T04:12:58;102044.25;;;10.72;100.00
64352;BME280;50680;52.626;-8.668;2023-05-03T04:15:25;102046.88;;;10.72;100.00
64352;BME280;50680;52.626;-8.668;2023-05-03T04:17:52;102044.25;;;10.72;100.00
64352;BME280;50680;52.626;-8.668;2023-05-03T04:20:18;102049.53;;;10.70;100.00
64352;BME280;50680;52.626;-8.668;2023-05-03T04:22:47;102048.66;;;10.71;100.00
64352;BME280;50680;52.626;-8.668;2023-05-03T04:25:13;102046.97;;;10.69;100.00
64352;BME280;50680;52.626;-8.668;2023-05-03T04:27:43;102049.59;;;10.69;100.00
64352;BME280;50680;52.626;-8.668;2023-05-03T04:30:11;102037.53;;;10.65;100.00
64352;BME280;50680;52.626;-8.668;2023-05-03T04:32:41;102035.69;;;10.67;100.00
64352;BME280;50680;52.626;-8.668;2023-05-03T04:35:09;102041.06;;;10.64;100.00
64352;BME280;50680;52.626;-8.668;2023-05-03T04:37:36;102034.13;;;10.63;100.00
64352;BME280;50680;52.626;-8.668;2023-05-03T04:40:04;102042.03;;;10.61;100.00
64352;BME280;50680;52.626;-8.668;2023-05-03T04:42:34;102042.03;;;10.61;100.00
64352;BME280;50680;52.626;-8.668;2023-05-03T04:45:01;102034.22;;;10.60;100.00
64352;BME280;50680;52.626;-8.668;2023-05-03T04:47:29;102038.56;;;10.61;100.00
64352;BME280;50680;52.626;-8.668;2023-05-03T04:49:56;102027.03;;;10.65;100.00
64352;BME280;50680;52.626;-8.668;2023-05-03T04:52:26;102031.28;;;10.67;100.00
64352;BME280;50680;52.626;-8.668;2023-05-03T04:54:53;102025.09;;;10.70;100.00
64352;BME280;50680;52.626;-8.668;2023-05-03T04:57:19;102030.41;;;10.68;100.00
64352;BME280;50680;52.626;-8.668;2023-05-03T04:59:46;102028.75;;;10.66;100.00
64352;BME280;50680;52.626;-8.668;2023-05-03T05:02:13;102031.28;;;10.67;100.00
64352;BME280;50680;52.626;-8.668;2023-05-03T05:04:40;102030.56;;;10.64;100.00
64352;BME280;50680;52.626;-8.668;2023-05-03T05:07:07;102034.16;;;10.61;100.00
64352;BME280;50680;52.626;-8.668;2023-05-03T05:09:34;102040.38;;;10.59;100.00
64352;BME280;50680;52.626;-8.668;2023-05-03T05:12:00;102029.09;;;10.57;100.00
64352;BME280;50680;52.626;-8.668;2023-05-03T05:14:30;102045.75;;;10.56;100.00
64352;BME280;50680;52.626;-8.668;2023-05-03T05:16:57;102040.44;;;10.57;100.00
64352;BME280;50680;52.626;-8.668;2023-05-03T05:19:24;102046.56;;;10.58;100.00
64352;BME280;50680;52.626;-8.668;2023-05-03T05:21:51;102041.19;;;10.61;100.00
64352;BME280;50680;52.626;-8.668;2023-05-03T05:24:18;102037.53;;;10.65;100.00
64352;BME280;50680;52.626;-8.668;2023-05-03T05:26:45;102043.44;;;10.70;100.00
64352;BME280;50680;52.626;-8.668;2023-05-03T05:29:12;102044.03;;;10.78;100.00
64352;BME280;50680;52.626;-8.668;2023-05-03T05:31:38;102051.69;;;10.83;100.00
64352;BME280;50680;52.626;-8.668;2023-05-03T05:34:05;102048.06;;;10.87;100.00
64352;BME280;50680;52.626;-8.668;2023-05-03T05:36:32;102063.44;;;10.96;100.00
64352;BME280;50680;52.626;-8.668;2023-05-03T05:38:59;102049.63;;;10.91;100.00
64352;BME280;50680;52.626;-8.668;2023-05-03T05:41:26;102055.22;;;11.04;100.00
64352;BME280;50680;52.626;-8.668;2023-05-03T05:43:53;102051.53;;;11.09;100.00
64352;BME280;50680;52.626;-8.668;2023-05-03T05:46:19;102065.34;;;11.15;100.00
64352;BME280;50680;52.626;-8.668;2023-05-03T05:48:47;102057.19;;;11.21;100.00
64352;BME280;50680;52.626;-8.668;2023-05-03T05:51:13;102055.97;;;11.29;100.00
64352;BME280;50680;52.626;-8.668;2023-05-03T05:53:40;102055.31;;;11.45;100.00
64352;BME280;50680;52.626;-8.668;2023-05-03T05:56:07;102054.97;;;11.54;100.00
64352;BME280;50680;52.626;-8.668;2023-05-03T05:58:35;102066.81;;;11.64;100.00
64352;BME280;50680;52.626;-8.668;2023-05-03T06:01:03;102045.69;;;11.66;100.00
64352;BME280;50680;52.626;-8.668;2023-05-03T06:03:32;102038.53;;;11.70;100.00
64352;BME280;50680;52.626;-8.668;2023-05-03T06:05:59;102034.59;;;11.80;100.00
64352;BME280;50680;52.626;-8.668;2023-05-03T06:08:26;102036.81;;;11.91;100.00
64352;BME280;50680;52.626;-8.668;2023-05-03T06:10:53;102036.44;;;11.98;100.00
64352;BME280;50680;52.626;-8.668;2023-05-03T06:13:21;102031.78;;;12.05;100.00
64352;BME280;50680;52.626;-8.668;2023-05-03T06:15:48;102042.88;;;12.12;100.00
64352;BME280;50680;52.626;-8.668;2023-05-03T06:18:15;102040.25;;;12.12;100.00
64352;BME280;50680;52.626;-8.668;2023-05-03T06:20:42;102043.78;;;12.11;100.00
64352;BME280;50680;52.626;-8.668;2023-05-03T06:23:08;102034.69;;;12.18;100.00
64352;BME280;50680;52.626;-8.668;2023-05-03T06:25:35;102037.84;;;12.26;100.00
64352;BME280;50680;52.626;-8.668;2023-05-03T06:28:02;102032.47;;;12.29;100.00
64352;BME280;50680;52.626;-8.668;2023-05-03T06:30:30;102028.69;;;12.35;100.00
64352;BME280;50680;52.626;-8.668;2023-05-03T06:32:57;102035.31;;;12.44;100.00
64352;BME280;50680;52.626;-8.668;2023-05-03T06:35:24;102021.22;;;12.45;100.00
64352;BME280;50680;52.626;-8.668;2023-05-03T06:37:50;102019.38;;;12.47;100.00
64352;BME280;50680;52.626;-8.668;2023-05-03T06:40:17;102015.84;;;12.48;100.00
64352;BME280;50680;52.626;-8.668;2023-05-03T06:42:44;102022.53;;;12.55;100.00
64352;BME280;50680;52.626;-8.668;2023-05-03T06:45:11;102012.84;;;12.55;100.00
64352;BME280;50680;52.626;-8.668;2023-05-03T06:47:38;102014.31;;;12.61;100.00
64352;BME280;50680;52.626;-8.668;2023-05-03T06:50:08;102016.69;;;12.67;100.00
64352;BME280;50680;52.626;-8.668;2023-05-03T06:52:36;102010.31;;;12.71;100.00
64352;BME280;50680;52.626;-8.668;2023-05-03T06:55:03;102014.53;;;12.75;100.00
64352;BME280;50680;52.626;-8.668;2023-05-03T06:57:30;102008.97;;;12.82;100.00
64352;BME280;50680;52.626;-8.668;2023-05-03T06:59:57;102014.94;;;12.85;100.00
64352;BME280;50680;52.626;-8.668;2023-05-03T07:02:24;102021.59;;;12.92;100.00
64352;BME280;50680;52.626;-8.668;2023-05-03T07:04:52;102013.50;;;12.97;100.00
64352;BME280;50680;52.626;-8.668;2023-05-03T07:07:19;102006.84;;;13.07;100.00
64352;BME280;50680;52.626;-8.668;2023-05-03T07:09:46;102004.22;;;13.07;100.00
64352;BME280;50680;52.626;-8.668;2023-05-03T07:12:13;101998.94;;;13.07;100.00
64352;BME280;50680;52.626;-8.668;2023-05-03T07:14:42;101995.09;;;13.14;100.00
64352;BME280;50680;52.626;-8.668;2023-05-03T07:17:09;101998.41;;;13.18;100.00
64352;BME280;50680;52.626;-8.668;2023-05-03T07:19:38;101986.81;;;13.22;100.00
64352;BME280;50680;52.626;-8.668;2023-05-03T07:22:05;102003.56;;;13.39;100.00
64352;BME280;50680;52.626;-8.668;2023-05-03T07:24:31;102000.22;;;13.52;100.00
64352;BME280;50680;52.626;-8.668;2023-05-03T07:26:58;101991.63;;;13.66;100.00
64352;BME280;50680;52.626;-8.668;2023-05-03T07:29:25;101997.03;;;13.81;100.00
64352;BME280;50680;52.626;-8.668;2023-05-03T07:31:53;101993.66;;;13.95;100.00
64352;BME280;50680;52.626;-8.668;2023-05-03T07:34:20;101983.69;;;14.00;100.00
64352;BME280;50680;52.626;-8.668;2023-05-03T07:36:47;101982.81;;;14.17;100.00
64352;BME280;50680;52.626;-8.668;2023-05-03T07:39:14;101991.69;;;14.32;100.00
64352;BME280;50680;52.626;-8.668;2023-05-03T07:41:41;101992.97;;;14.40;100.00
64352;BME280;50680;52.626;-8.668;2023-05-03T07:44:08;101986.47;;;14.46;100.00
64352;BME280;50680;52.626;-8.668;2023-05-03T07:46:35;101989.88;;;14.48;100.00
64352;BME280;50680;52.626;-8.668;2023-05-03T07:49:02;101998.00;;;14.45;100.00
64352;BME280;50680;52.626;-8.668;2023-05-03T07:51:34;101995.34;;;14.45;100.00
64352;BME280;50680;52.626;-8.668;2023-05-03T07:54:01;101990.16;;;14.43;100.00
64352;BME280;50680;52.626;-8.668;2023-05-03T07:56:28;101987.34;;;14.46;100.00
64352;BME280;50680;52.626;-8.668;2023-05-03T07:58:57;101985.47;;;14.48;100.00
64352;BME280;50680;52.626;-8.668;2023-05-03T08:01:35;101979.53;;;14.45;100.00
64352;BME280;50680;52.626;-8.668;2023-05-03T08:04:02;101994.84;;;14.54;100.00
64352;BME280;50680;52.626;-8.668;2023-05-03T08:06:30;101984.09;;;14.57;100.00
64352;BME280;50680;52.626;-8.668;2023-05-03T08:08:57;101982.94;;;14.63;100.00
64352;BME280;50680;52.626;-8.668;2023-05-03T08:11:26;101981.91;;;14.65;100.00
64352;BME280;50680;52.626;-8.668;2023-05-03T08:13:54;101979.09;;;14.69;100.00
64352;BME280;50680;52.626;-8.668;2023-05-03T08:16:21;101979.09;;;14.69;100.00
64352;BME280;50680;52.626;-8.668;2023-05-03T08:18:48;101978.00;;;14.73;100.00
64352;BME280;50680;52.626;-8.668;2023-05-03T08:21:15;101961.75;;;14.64;100.00
64352;BME280;50680;52.626;-8.668;2023-05-03T08:23:43;101965.91;;;14.69;100.00
64352;BME280;50680;52.626;-8.668;2023-05-03T08:26:10;101965.81;;;14.70;100.00
64352;BME280;50680;52.626;-8.668;2023-05-03T08:28:39;101963.84;;;14.74;100.00
64352;BME280;50680;52.626;-8.668;2023-05-03T08:31:06;101958.22;;;14.80;100.00
64352;BME280;50680;52.626;-8.668;2023-05-03T08:33:33;101966.47;;;14.74;100.00
64352;BME280;50680;52.626;-8.668;2023-05-03T08:36:00;101958.41;;;14.77;100.00
64352;BME280;50680;52.626;-8.668;2023-05-03T08:38:27;101958.06;;;14.83;100.00
64352;BME280;50680;52.626;-8.668;2023-05-03T08:40:57;101957.03;;;14.85;100.00
64352;BME280;50680;52.626;-8.668;2023-05-03T08:43:26;101960.50;;;14.86;100.00
64352;BME280;50680;52.626;-8.668;2023-05-03T08:45:54;101955.63;;;14.94;100.00
64352;BME280;50680;52.626;-8.668;2023-05-03T08:48:21;101945.06;;;14.94;100.00
64352;BME280;50680;52.626;-8.668;2023-05-03T08:50:50;101948.28;;;14.99;100.00
64352;BME280;50680;52.626;-8.668;2023-05-03T08:53:18;101944.53;;;15.03;100.00
64352;BME280;50680;52.626;-8.668;2023-05-03T08:55:44;101940.38;;;14.99;100.00
64352;BME280;50680;52.626;-8.668;2023-05-03T08:58:12;101947.75;;;15.09;100.00
64352;BME280;50680;52.626;-8.668;2023-05-03T09:00:39;101933.97;;;15.03;100.00
64352;BME280;50680;52.626;-8.668;2023-05-03T09:03:11;101944.66;;;15.16;100.00
64352;BME280;50680;52.626;-8.668;2023-05-03T09:05:38;101949.94;;;15.16;100.00
64352;BME280;50680;52.626;-8.668;2023-05-03T09:08:10;101947.63;;;15.26;100.00
64352;BME280;50680;52.626;-8.668;2023-05-03T09:10:40;101936.31;;;15.38;100.00
64352;BME280;50680;52.626;-8.668;2023-05-03T09:13:08;101940.47;;;15.42;100.00
64352;BME280;50680;52.626;-8.668;2023-05-03T09:15:35;101935.50;;;15.52;100.00
64352;BME280;50680;52.626;-8.668;2023-05-03T09:20:34;101932.84;;;15.52;100.00
64352;BME280;50680;52.626;-8.668;2023-05-03T09:23:02;101928.47;;;15.51;100.00
64352;BME280;50680;52.626;-8.668;2023-05-03T09:25:41;101922.19;;;15.54;100.00
64352;BME280;50680;52.626;-8.668;2023-05-03T09:28:09;101911.88;;;15.64;100.00
64352;BME280;50680;52.626;-8.668;2023-05-03T09:30:35;101912.16;;;15.73;100.00
64352;BME280;50680;52.626;-8.668;2023-05-03T09:33:03;101923.13;;;15.96;100.00
64352;BME280;50680;52.626;-8.668;2023-05-03T09:35:30;101917.63;;;16.13;100.00
64352;BME280;50680;52.626;-8.668;2023-05-03T09:37:58;101909.84;;;16.25;100.00
64352;BME280;50680;52.626;-8.668;2023-05-03T09:40:26;101917.50;;;16.57;100.00
64352;BME280;50680;52.626;-8.668;2023-05-03T09:43:12;101927.00;;;16.46;100.00
64352;BME280;50680;52.626;-8.668;2023-05-03T09:45:44;101920.84;;;16.46;100.00
64352;BME280;50680;52.626;-8.668;2023-05-03T09:48:12;101927.38;;;16.40;100.00
64352;BME280;50680;52.626;-8.668;2023-05-03T09:50:39;101925.06;;;16.48;100.00
64352;BME280;50680;52.626;-8.668;2023-05-03T09:53:07;101933.38;;;16.57;100.00
64352;BME280;50680;52.626;-8.668;2023-05-03T09:55:36;101920.13;;;16.57;100.00
64352;BME280;50680;52.626;-8.668;2023-05-03T09:58:04;101919.22;;;16.70;100.00
64352;BME280;50680;52.626;-8.668;2023-05-03T10:00:39;101924.25;;;16.75;100.00
64352;BME280;50680;52.626;-8.668;2023-05-03T10:03:18;101924.00;;;16.78;100.00
64352;BME280;50680;52.626;-8.668;2023-05-03T10:05:49;101922.97;;;16.81;100.00
64352;BME280;50680;52.626;-8.668;2023-05-03T10:08:32;101925.22;;;16.87;100.00
64352;BME280;50680;52.626;-8.668;2023-05-03T10:11:03;101931.66;;;17.10;100.00
64352;BME280;50680;52.626;-8.668;2023-05-03T10:13:31;101920.22;;;17.22;100.00
64352;BME280;50680;52.626;-8.668;2023-05-03T10:16:23;101915.22;;;17.18;100.00
64352;BME280;50680;52.626;-8.668;2023-05-03T10:19:15;101936.41;;;17.05;100.00
64352;BME280;50680;52.626;-8.668;2023-05-03T10:24:25;101933.56;;;17.21;100.00
64352;BME280;50680;52.626;-8.668;2023-05-03T10:26:54;101921.28;;;17.33;100.00
64352;BME280;50680;52.626;-8.668;2023-05-03T10:32:01;101926.25;;;17.76;100.00
64352;BME280;50680;52.626;-8.668;2023-05-03T10:34:33;101931.44;;;17.90;100.00
64352;BME280;50680;52.626;-8.668;2023-05-03T10:37:08;101931.59;;;18.13;100.00
64352;BME280;50680;52.626;-8.668;2023-05-03T10:39:35;101930.59;;;18.27;100.00
64352;BME280;50680;52.626;-8.668;2023-05-03T10:42:04;101928.44;;;18.69;100.00
64352;BME280;50680;52.626;-8.668;2023-05-03T10:44:39;101919.75;;;19.02;100.00
64352;BME280;50680;52.626;-8.668;2023-05-03T10:47:15;101917.28;;;19.34;100.00
64352;BME280;50680;52.626;-8.668;2023-05-03T10:49:42;101925.38;;;19.44;100.00
64352;BME280;50680;52.626;-8.668;2023-05-03T10:55:01;101919.66;;;19.15;100.00
64352;BME280;50680;52.626;-8.668;2023-05-03T10:57:34;101906.88;;;19.31;100.00
64352;BME280;50680;52.626;-8.668;2023-05-03T11:00:17;101912.31;;;19.41;100.00
64352;BME280;50680;52.626;-8.668;2023-05-03T11:05:46;101907.38;;;19.37;100.00
64352;BME280;50680;52.626;-8.668;2023-05-03T11:08:19;101915.94;;;19.51;100.00
64352;BME280;50680;52.626;-8.668;2023-05-03T11:10:48;101910.16;;;19.69;100.00
64352;BME280;50680;52.626;-8.668;2023-05-03T11:13:15;101904.34;;;19.64;100.00
64352;BME280;50680;52.626;-8.668;2023-05-03T11:15:42;101903.63;;;19.73;100.00
64352;BME280;50680;52.626;-8.668;2023-05-03T11:18:11;101900.00;;;19.74;100.00
64352;BME280;50680;52.626;-8.668;2023-05-03T11:20:38;101902.31;;;19.79;100.00
64352;BME280;50680;52.626;-8.668;2023-05-03T11:23:05;101906.66;;;19.68;100.00
64352;BME280;50680;52.626;-8.668;2023-05-03T11:25:33;101902.66;;;19.40;100.00
64352;BME280;50680;52.626;-8.668;2023-05-03T11:28:00;101892.38;;;19.35;100.00
64352;BME280;50680;52.626;-8.668;2023-05-03T11:30:28;101897.19;;;19.30;100.00
64352;BME280;50680;52.626;-8.668;2023-05-03T11:32:55;101892.44;;;19.11;100.00
64352;BME280;50680;52.626;-8.668;2023-05-03T11:35:22;101899.31;;;18.91;100.00
64352;BME280;50680;52.626;-8.668;2023-05-03T11:37:52;101888.44;;;18.70;100.00
64352;BME280;50680;52.626;-8.668;2023-05-03T11:40:22;101887.03;;;18.77;100.00
64352;BME280;50680;52.626;-8.668;2023-05-03T11:42:53;101879.28;;;18.74;100.00
64352;BME280;50680;52.626;-8.668;2023-05-03T11:45:41;101878.13;;;18.54;100.00
64352;BME280;50680;52.626;-8.668;2023-05-03T11:48:13;101871.91;;;18.42;100.00
64352;BME280;50680;52.626;-8.668;2023-05-03T11:50:50;101868.38;;;18.55;100.00
64352;BME280;50680;52.626;-8.668;2023-05-03T11:53:21;101852.44;;;18.55;100.00
64352;BME280;50680;52.626;-8.668;2023-05-03T11:55:51;101863.50;;;18.49;100.00
64352;BME280;50680;52.626;-8.668;2023-05-03T11:58:22;101858.47;;;18.57;100.00
64352;BME280;50680;52.626;-8.668;2023-05-03T12:00:51;101861.41;;;18.76;100.00
64352;BME280;50680;52.626;-8.668;2023-05-03T12:03:26;101849.91;;;19.11;100.00
64352;BME280;50680;52.626;-8.668;2023-05-03T12:06:02;101840.75;;;19.38;100.00
64352;BME280;50680;52.626;-8.668;2023-05-03T12:08:31;101844.38;;;19.71;100.00
64352;BME280;50680;52.626;-8.668;2023-05-03T12:11:02;101840.50;;;19.75;100.00
64352;BME280;50680;52.626;-8.668;2023-05-03T12:13:37;101844.09;;;19.97;100.00
64352;BME280;50680;52.626;-8.668;2023-05-03T12:16:09;101843.09;;;20.09;100.00
64352;BME280;50680;52.626;-8.668;2023-05-03T12:18:45;101842.09;;;20.21;100.00
64352;BME280;50680;52.626;-8.668;2023-05-03T12:21:13;101839.00;;;20.37;100.00
64352;BME280;50680;52.626;-8.668;2023-05-03T12:23:44;101826.44;;;20.81;100.00
64352;BME280;50680;52.626;-8.668;2023-05-03T12:26:11;101829.25;;;21.11;100.00
64352;BME280;50680;52.626;-8.668;2023-05-03T12:28:40;101814.00;;;21.13;100.00
64352;BME280;50680;52.626;-8.668;2023-05-03T12:31:07;101818.00;;;21.38;100.00
64352;BME280;50680;52.626;-8.668;2023-05-03T12:33:34;101823.88;;;21.63;100.00
64352;BME280;50680;52.626;-8.668;2023-05-03T12:36:04;101824.34;;;21.97;100.00
64352;BME280;50680;52.626;-8.668;2023-05-03T12:38:35;101806.81;;;22.24;100.00
64352;BME280;50680;52.626;-8.668;2023-05-03T12:41:03;101822.84;;;22.33;100.00
64352;BME280;50680;52.626;-8.668;2023-05-03T12:43:34;101811.75;;;22.28;100.00
64352;BME280;50680;52.626;-8.668;2023-05-03T12:46:02;101817.50;;;22.14;100.00
64352;BME280;50680;52.626;-8.668;2023-05-03T12:48:31;101825.50;;;22.04;100.00
64352;BME280;50680;52.626;-8.668;2023-05-03T12:50:59;101818.06;;;21.98;100.00
64352;BME280;50680;52.626;-8.668;2023-05-03T12:53:45;101797.53;;;22.08;100.00
64352;BME280;50680;52.626;-8.668;2023-05-03T12:56:13;101804.44;;;22.01;100.00
64352;BME280;50680;52.626;-8.668;2023-05-03T12:58:40;101805.38;;;21.81;100.00
64352;BME280;50680;52.626;-8.668;2023-05-03T13:01:28;101806.44;;;21.58;100.00